createdAt,value
2022-08-11T00:01:15.748Z,43.42
2022-08-11T00:03:48.680Z,43.66
2022-08-11T00:06:25.796Z,43.74
2022-08-11T00:08:55.708Z,43.82
2022-08-11T00:11:35.192Z,43.99
2022-08-11T00:14:12.913Z,44.09
2022-08-11T00:16:44.560Z,44.16
2022-08-11T00:19:20.431Z,44.26
2022-08-11T00:22:10.926Z,44.48
2022-08-11T00:24:53.560Z,44.70
2022-08-11T00:27:33.493Z,44.75
2022-08-11T00:30:04.915Z,44.84
2022-08-11T00:32:35.159Z,44.92
2022-08-11T00:35:50.907Z,45.04
2022-08-11T00:37:57.828Z,45.42
2022-08-11T00:40:34.407Z,45.46
2022-08-11T00:43:20.345Z,45.63
2022-08-11T00:46:10.691Z,45.95
2022-08-11T00:48:58.617Z,46.18
2022-08-11T00:52:04.184Z,46.38
2022-08-11T00:54:59.196Z,46.60
2022-08-11T00:57:55.204Z,46.84
2022-08-11T01:00:26.656Z,47.01
2022-08-11T01:03:17.919Z,47.14
2022-08-11T01:06:17.460Z,47.25
2022-08-11T01:09:22.419Z,47.34
2022-08-11T01:12:20.144Z,47.57
2022-08-11T01:15:32.802Z,47.52
2022-08-11T01:18:45.111Z,47.94
2022-08-11T01:21:59.946Z,47.97
2022-08-11T01:25:04.276Z,48.26
2022-08-11T01:28:06.793Z,48.43
2022-08-11T01:31:11.471Z,48.51
2022-08-11T01:34:15.860Z,48.88
2022-08-11T01:37:10.709Z,48.89
2022-08-11T01:40:28.391Z,48.96
2022-08-11T01:43:37.478Z,49.11
2022-08-11T01:46:15.785Z,49.14
2022-08-11T01:50:06.409Z,49.22
2022-08-11T01:52:08.372Z,49.31
2022-08-11T01:54:48.398Z,49.49
2022-08-11T01:57:37.774Z,49.59
2022-08-11T02:00:14.580Z,49.65
2022-08-11T02:03:01.241Z,49.69
2022-08-11T02:05:51.750Z,49.82
2022-08-11T02:08:33.286Z,49.71
2022-08-11T02:11:30.780Z,49.99
2022-08-11T02:14:15.582Z,49.99
2022-08-11T02:16:57.137Z,49.96
2022-08-11T02:19:56.261Z,49.95
2022-08-11T02:22:53.993Z,50.23
2022-08-11T02:25:31.316Z,50.17
2022-08-11T02:28:08.301Z,50.43
2022-08-11T02:30:41.613Z,50.57
2022-08-11T02:33:24.669Z,50.63
2022-08-11T02:36:07.746Z,50.49
2022-08-11T02:38:51.468Z,50.43
2022-08-11T02:41:44.510Z,50.64
2022-08-11T02:44:27.720Z,50.61
2022-08-11T02:47:13.950Z,50.54
2022-08-11T02:50:02.597Z,50.58
2022-08-11T02:52:44.800Z,50.70
2022-08-11T02:55:50.888Z,50.78
2022-08-11T02:58:27.920Z,50.95
2022-08-11T03:01:10.929Z,51.05
2022-08-11T03:03:51.275Z,51.32
2022-08-11T03:06:35.488Z,51.17
2022-08-11T03:09:13.789Z,51.44
2022-08-11T03:12:16.742Z,51.40
2022-08-11T03:15:12.710Z,51.60
2022-08-11T03:17:55.736Z,51.79
2022-08-11T03:20:38.179Z,51.65
2022-08-11T03:23:19.652Z,51.82
2022-08-11T03:25:55.594Z,52.04
2022-08-11T03:28:34.078Z,52.07
2022-08-11T03:31:24.288Z,51.97
2022-08-11T03:34:06.264Z,52.21
2022-08-11T03:37:17.118Z,52.20
2022-08-11T03:39:56.595Z,52.33
2022-08-11T03:42:33.619Z,52.35
2022-08-11T03:45:15.904Z,52.34
2022-08-11T03:48:04.787Z,52.39
2022-08-11T03:50:57.604Z,52.32
2022-08-11T03:53:48.118Z,52.48
2022-08-11T03:56:47.028Z,52.55
2022-08-11T03:59:43.234Z,52.82
2022-08-11T04:02:39.264Z,52.89
2022-08-11T04:05:44.523Z,53.04
2022-08-11T04:08:44.508Z,53.17
2022-08-11T04:11:41.350Z,53.40
2022-08-11T04:15:06.462Z,53.43
2022-08-11T04:18:19.982Z,53.56
2022-08-11T04:21:05.147Z,53.59
2022-08-11T04:24:36.386Z,53.75
2022-08-11T04:27:37.446Z,53.67
2022-08-11T04:30:14.469Z,53.63
2022-08-11T04:33:23.203Z,53.62
2022-08-11T04:36:02.517Z,53.51
2022-08-11T04:39:08.994Z,53.60
2022-08-11T04:42:31.033Z,53.50
2022-08-11T04:45:39.980Z,53.32
2022-08-11T04:48:45.767Z,53.31
2022-08-11T04:51:55.641Z,53.23
2022-08-11T04:55:00.707Z,53.23
2022-08-11T04:57:59.368Z,53.06
2022-08-11T05:01:03.795Z,53.19
2022-08-11T05:03:54.236Z,53.10
2022-08-11T05:07:06.738Z,53.06
2022-08-11T05:10:08.489Z,52.91
2022-08-11T05:12:44.864Z,52.81
2022-08-11T05:15:42.533Z,52.89
2022-08-11T05:18:35.332Z,52.78
2022-08-11T05:21:27.159Z,52.77
2022-08-11T05:24:21.702Z,52.62
2022-08-11T05:27:13.765Z,52.53
2022-08-11T05:30:09.867Z,52.56
2022-08-11T05:33:02.175Z,52.52
2022-08-11T05:36:00.100Z,52.56
2022-08-11T05:38:49.020Z,52.48
2022-08-11T05:41:40.400Z,52.33
2022-08-11T05:44:29.596Z,52.18
2022-08-11T05:47:18.446Z,52.14
2022-08-11T05:50:13.574Z,52.00
2022-08-11T05:53:09.180Z,51.93
2022-08-11T05:56:03.503Z,51.60
2022-08-11T05:58:42.431Z,51.25
2022-08-11T06:01:14.309Z,51.19
2022-08-11T06:04:03.676Z,50.92
2022-08-11T06:06:33.153Z,50.59
2022-08-11T06:09:02.767Z,50.54
2022-08-11T06:11:43.940Z,50.07
2022-08-11T06:14:15.427Z,49.98
2022-08-11T06:16:49.197Z,49.87
2022-08-11T06:19:22.571Z,49.62
2022-08-11T06:21:52.677Z,49.49
2022-08-11T06:24:22.435Z,49.18
2022-08-11T06:29:55.078Z,48.56
2022-08-11T06:32:31.600Z,47.90
2022-08-11T06:35:11.257Z,48.05
2022-08-11T06:37:59.054Z,47.97
2022-08-11T06:40:43.362Z,47.50
2022-08-11T06:43:21.551Z,47.36
2022-08-11T06:45:55.348Z,47.11
2022-08-11T06:48:25.417Z,46.81
2022-08-11T06:51:14.560Z,46.61
2022-08-11T06:54:03.745Z,46.22
2022-08-11T06:57:26.489Z,46.17
2022-08-11T07:00:05.733Z,45.68
2022-08-11T07:02:43.391Z,45.27
2022-08-11T07:05:20.861Z,44.98
2022-08-11T07:08:35.814Z,44.83
2022-08-11T07:12:11.505Z,44.55
2022-08-11T07:15:07.425Z,44.26
2022-08-11T07:17:42.073Z,43.78
2022-08-11T07:20:32.166Z,43.60
2022-08-11T07:23:20.860Z,43.45
2022-08-11T07:26:12.075Z,43.14
2022-08-11T07:28:58.267Z,42.60
2022-08-11T07:31:35.723Z,42.01
2022-08-11T07:34:21.702Z,41.60
2022-08-11T07:36:53.651Z,41.51
2022-08-11T07:39:25.919Z,41.37
2022-08-11T07:41:57.569Z,40.94
2022-08-11T07:44:34.417Z,40.58
2022-08-11T07:47:23.203Z,40.09
2022-08-11T07:50:12.361Z,39.19
2022-08-11T07:52:41.556Z,39.42
2022-08-11T07:55:16.453Z,38.74
2022-08-11T07:58:15.415Z,38.61
2022-08-11T08:01:21.312Z,38.28
2022-08-11T08:04:11.086Z,37.79
2022-08-11T08:06:59.144Z,37.27
2022-08-11T08:09:47.232Z,37.02
2022-08-11T08:12:38.069Z,36.70
2022-08-11T08:15:28.287Z,36.11
2022-08-11T08:18:20.996Z,35.65
2022-08-11T08:20:51.186Z,35.34
2022-08-11T08:23:32.336Z,34.90
2022-08-11T08:26:03.786Z,33.98
2022-08-11T08:28:33.823Z,33.97
2022-08-11T08:31:03.220Z,33.79
2022-08-11T08:33:33.351Z,33.40
2022-08-11T08:36:16.584Z,32.79
2022-08-11T08:38:50.818Z,32.90
2022-08-11T08:41:24.913Z,32.60
2022-08-11T08:44:27.281Z,32.48
2022-08-11T08:46:54.339Z,32.19
2022-08-11T08:49:31.750Z,32.06
2022-08-11T08:52:26.477Z,31.85
2022-08-11T08:54:56.721Z,31.39
2022-08-11T08:57:29.399Z,31.28
2022-08-11T09:00:00.247Z,30.97
2022-08-11T09:02:34.647Z,30.61
2022-08-11T09:05:07.161Z,30.78
2022-08-11T09:07:39.063Z,30.25
2022-08-11T09:10:11.214Z,29.61
2022-08-11T09:12:42.433Z,29.54
2022-08-11T09:15:13.528Z,29.53
2022-08-11T09:17:45.955Z,29.54
2022-08-11T09:20:18.015Z,29.29
2022-08-11T09:26:30.463Z,28.84
2022-08-11T09:29:01.181Z,28.53
2022-08-11T09:31:39.466Z,28.68
2022-08-11T09:34:10.729Z,28.30
2022-08-11T09:37:01.376Z,28.38
2022-08-11T09:39:50.139Z,28.28
2022-08-11T09:42:23.757Z,28.02
2022-08-11T09:44:53.949Z,27.96
2022-08-11T09:47:25.974Z,28.05
2022-08-11T09:49:59.605Z,28.12
2022-08-11T09:52:32.246Z,28.30
2022-08-11T09:55:02.779Z,28.28
2022-08-11T09:57:50.007Z,28.32
2022-08-11T10:00:21.116Z,28.44
2022-08-11T10:02:54.005Z,28.34
2022-08-11T10:05:42.164Z,28.70
2022-08-11T10:08:14.311Z,28.72
2022-08-11T10:10:45.676Z,28.52
2022-08-11T10:14:31.061Z,28.49
2022-08-11T10:16:16.162Z,28.51
2022-08-11T10:18:52.047Z,28.58
2022-08-11T10:21:27.703Z,28.60
2022-08-11T10:24:17.795Z,28.13
2022-08-11T10:26:55.238Z,28.39
2022-08-11T10:29:50.067Z,28.22
2022-08-11T10:32:46.399Z,28.18
2022-08-11T10:35:30.358Z,28.58
2022-08-11T10:38:08.431Z,28.36
2022-08-11T10:40:41.415Z,28.48
2022-08-11T10:43:13.045Z,28.22
2022-08-11T10:46:03.860Z,28.59
2022-08-11T10:48:37.746Z,28.50
2022-08-11T10:51:14.501Z,28.46
2022-08-11T10:54:04.834Z,28.43
2022-08-11T10:56:56.961Z,28.26
2022-08-11T10:59:29.368Z,28.04
2022-08-11T11:01:59.679Z,28.55
2022-08-11T11:04:38.432Z,28.47
2022-08-11T11:07:16.257Z,28.64
2022-08-11T11:09:50.555Z,28.59
2022-08-11T11:12:42.687Z,28.54
2022-08-11T11:15:31.286Z,28.56
2022-08-11T11:18:06.300Z,28.68
2022-08-11T11:20:41.571Z,28.65
2022-08-11T11:23:19.796Z,28.44
2022-08-11T11:26:10.012Z,28.82
2022-08-11T11:29:14.559Z,28.66
2022-08-11T11:31:56.383Z,28.45
2022-08-11T11:34:52.742Z,28.23
2022-08-11T11:37:23.927Z,28.36
2022-08-11T11:39:54.218Z,28.49
2022-08-11T11:42:24.697Z,28.60
2022-08-11T11:44:56.200Z,28.29
2022-08-11T11:47:26.767Z,28.33
2022-08-11T11:49:57.034Z,28.22
2022-08-11T11:52:26.577Z,28.41
2022-08-11T11:54:57.348Z,28.57
2022-08-11T11:57:58.474Z,28.37
2022-08-11T12:00:48.648Z,28.47
2022-08-11T12:03:19.892Z,28.52
2022-08-11T12:05:52.285Z,28.39
2022-08-11T12:08:27.578Z,28.54
2022-08-11T12:11:14.063Z,28.60
2022-08-11T12:13:45.933Z,28.52
2022-08-11T12:16:33.125Z,28.57
2022-08-11T12:19:07.649Z,28.58
2022-08-11T12:21:59.348Z,28.28
2022-08-11T12:24:49.239Z,28.22
2022-08-11T12:27:24.206Z,28.46
2022-08-11T12:29:57.930Z,28.31
2022-08-11T12:32:29.662Z,28.33
2022-08-11T12:34:59.640Z,28.71
2022-08-11T12:37:32.347Z,28.24
2022-08-11T12:40:43.373Z,28.44
2022-08-11T12:43:38.819Z,28.69
2022-08-11T12:46:12.340Z,28.65
2022-08-11T12:49:04.424Z,28.72
2022-08-11T12:52:00.996Z,28.58
2022-08-11T12:54:51.346Z,28.64
2022-08-11T12:57:43.837Z,28.61
2022-08-11T13:00:32.545Z,28.63
2022-08-11T13:03:20.421Z,28.40
2022-08-11T13:05:52.332Z,28.67
2022-08-11T13:08:24.469Z,28.56
2022-08-11T13:11:13.890Z,28.69
2022-08-11T13:13:52.346Z,28.71
2022-08-11T13:16:28.970Z,28.84
2022-08-11T13:19:00.487Z,28.87
2022-08-11T13:21:30.119Z,29.03
2022-08-11T13:24:03.332Z,29.21
2022-08-11T13:26:47.212Z,29.19
2022-08-11T13:29:23.002Z,29.33
2022-08-11T13:31:53.708Z,29.37
2022-08-11T13:34:24.864Z,29.36
2022-08-11T13:36:56.829Z,29.32
2022-08-11T13:39:28.277Z,29.31
2022-08-11T13:41:59.289Z,29.36
2022-08-11T13:44:30.744Z,29.50
2022-08-11T13:47:03.341Z,29.62
2022-08-11T13:49:36.935Z,29.55
2022-08-11T13:52:13.024Z,29.49
2022-08-11T13:54:43.024Z,29.47
2022-08-11T13:58:08.699Z,29.38
2022-08-11T14:00:23.454Z,29.43
2022-08-11T14:02:58.143Z,29.48
2022-08-11T14:05:32.121Z,29.54
2022-08-11T14:08:03.485Z,29.73
2022-08-11T14:10:35.695Z,29.66
2022-08-11T14:13:28.434Z,29.76
2022-08-11T14:16:04.260Z,29.76
2022-08-11T14:18:35.399Z,29.65
2022-08-11T14:21:24.512Z,29.74
2022-08-11T14:23:57.328Z,29.64
2022-08-11T14:26:28.170Z,29.68
2022-08-11T14:29:01.578Z,29.94
2022-08-11T14:31:32.720Z,29.92
2022-08-11T14:34:04.611Z,29.79
2022-08-11T14:36:36.951Z,29.95
2022-08-11T14:39:12.368Z,30.11
2022-08-11T14:42:11.593Z,29.96
2022-08-11T14:45:05.400Z,30.06
2022-08-11T14:47:37.114Z,30.04
2022-08-11T14:50:12.824Z,30.03
2022-08-11T14:52:48.527Z,30.00
2022-08-11T14:55:36.847Z,29.71
2022-08-11T14:58:08.751Z,29.97
2022-08-11T15:00:39.373Z,30.12
2022-08-11T15:03:11.435Z,30.00
2022-08-11T15:05:57.733Z,30.04
2022-08-11T15:08:48.321Z,30.06
2022-08-11T15:11:37.030Z,30.10
2022-08-11T15:14:08.555Z,30.11
2022-08-11T15:16:59.150Z,30.12
2022-08-11T15:19:40.249Z,30.18
2022-08-11T15:22:28.722Z,30.21
2022-08-11T15:24:59.810Z,30.00
2022-08-11T15:27:48.985Z,30.19
2022-08-11T15:30:36.176Z,30.07
2022-08-11T15:33:26.263Z,29.85
2022-08-11T15:36:15.699Z,30.02
2022-08-11T15:38:55.336Z,30.01
2022-08-11T15:41:56.427Z,30.14
2022-08-11T15:45:04.942Z,29.76
2022-08-11T15:47:36.808Z,29.97
2022-08-11T15:50:13.830Z,30.07
2022-08-11T15:52:52.617Z,29.91
2022-08-11T15:55:23.975Z,29.78
2022-08-11T15:58:09.683Z,29.96
2022-08-11T16:01:03.864Z,29.64
2022-08-11T16:04:07.916Z,29.97
2022-08-11T16:06:44.827Z,30.02
2022-08-11T16:09:23.851Z,29.86
2022-08-11T16:11:54.715Z,29.83
2022-08-11T16:14:42.448Z,30.00
2022-08-11T16:17:14.685Z,29.91
2022-08-11T16:19:44.221Z,30.08
2022-08-11T16:22:15.635Z,29.97
2022-08-11T16:27:02.760Z,29.97
2022-08-11T16:27:40.619Z,30.11
2022-08-11T16:30:10.943Z,30.00
2022-08-11T16:32:43.271Z,30.12
2022-08-11T16:35:34.349Z,29.99
2022-08-11T16:38:24.131Z,30.10
2022-08-11T16:40:55.841Z,30.14
2022-08-11T16:43:46.400Z,30.13
2022-08-11T16:46:32.733Z,30.16
2022-08-11T16:49:04.897Z,30.12
2022-08-11T16:51:34.714Z,30.21
2022-08-11T16:54:06.170Z,30.28
2022-08-11T16:56:39.347Z,30.28
2022-08-11T16:59:14.526Z,30.49
2022-08-11T17:01:45.187Z,30.45
2022-08-11T17:04:42.325Z,30.49
2022-08-11T17:07:41.480Z,30.54
2022-08-11T17:10:53.336Z,30.71
2022-08-11T17:13:31.796Z,30.74
2022-08-11T17:16:11.000Z,30.80
2022-08-11T17:18:48.669Z,30.98
2022-08-11T17:21:21.694Z,30.92
2022-08-11T17:23:55.265Z,30.88
2022-08-11T17:26:46.740Z,31.00
2022-08-11T17:29:17.246Z,31.17
2022-08-11T17:32:07.067Z,31.24
2022-08-11T17:34:55.747Z,31.45
2022-08-11T17:37:27.036Z,31.44
2022-08-11T17:39:57.792Z,31.62
2022-08-11T17:42:48.173Z,31.55
2022-08-11T17:45:37.901Z,31.94
2022-08-11T17:48:25.837Z,32.00
2022-08-11T17:50:56.696Z,32.24
2022-08-11T17:54:10.150Z,32.28
2022-08-11T17:56:53.889Z,32.54
2022-08-11T17:59:43.867Z,32.75
2022-08-11T18:02:39.739Z,32.84
2022-08-11T18:05:13.451Z,33.12
2022-08-11T18:08:03.550Z,33.33
2022-08-11T18:10:52.609Z,33.21
2022-08-11T18:13:42.757Z,33.46
2022-08-11T18:16:30.427Z,33.66
2022-08-11T18:19:18.276Z,33.87
2022-08-11T18:22:15.410Z,33.97
2022-08-11T18:25:09.748Z,34.31
2022-08-11T18:28:01.686Z,34.32
2022-08-11T18:30:51.404Z,34.77
2022-08-11T18:34:06.927Z,34.92
2022-08-11T18:36:59.526Z,35.26
2022-08-11T18:39:54.742Z,35.16
2022-08-11T18:42:47.725Z,35.29
2022-08-11T18:45:45.646Z,35.44
2022-08-11T18:48:38.570Z,35.37
2022-08-11T18:51:30.624Z,35.33
2022-08-11T18:54:28.438Z,35.24
2022-08-11T18:57:18.992Z,35.34
2022-08-11T19:00:08.159Z,35.05
2022-08-11T19:02:57.710Z,35.05
2022-08-11T19:06:35.498Z,35.02
2022-08-11T19:08:59.642Z,34.82
2022-08-11T19:11:49.726Z,34.80
2022-08-11T19:14:39.715Z,35.20
2022-08-11T19:17:44.555Z,35.00
2022-08-11T19:20:35.919Z,34.91
2022-08-11T19:23:26.504Z,34.75
2022-08-11T19:26:14.939Z,34.83
2022-08-11T19:29:05.267Z,34.80
2022-08-11T19:31:53.536Z,35.11
2022-08-11T19:34:43.134Z,34.95
2022-08-11T19:37:30.841Z,34.81
2022-08-11T19:40:21.310Z,34.91
2022-08-11T19:43:23.652Z,34.76
2022-08-11T19:46:17.219Z,35.04
2022-08-11T19:49:09.192Z,34.83
2022-08-11T19:51:57.044Z,35.24
2022-08-11T19:54:47.095Z,34.86
2022-08-11T19:57:39.632Z,35.17
2022-08-11T20:00:31.749Z,35.13
2022-08-11T20:03:20.196Z,35.26
2022-08-11T20:06:10.369Z,35.04
2022-08-11T20:09:01.966Z,34.94
2022-08-11T20:11:53.604Z,35.02
2022-08-11T20:14:42.885Z,35.13
2022-08-11T20:17:33.453Z,35.36
2022-08-11T20:20:25.559Z,35.14
2022-08-11T20:23:16.501Z,35.18
2022-08-11T20:26:27.863Z,35.16
2022-08-11T20:29:13.580Z,35.32
2022-08-11T20:32:01.871Z,35.21
2022-08-11T20:34:56.093Z,35.22
2022-08-11T20:37:50.175Z,35.28
2022-08-11T20:40:40.974Z,35.37
2022-08-11T20:44:06.674Z,35.37
2022-08-11T20:46:38.427Z,35.40
2022-08-11T20:49:41.300Z,35.49
2022-08-11T20:52:38.073Z,35.48
2022-08-11T20:55:52.212Z,35.43
2022-08-11T20:59:04.059Z,35.67
2022-08-11T21:01:45.435Z,35.42
2022-08-11T21:04:32.995Z,35.45
2022-08-11T21:10:30.913Z,35.75
2022-08-11T21:13:26.505Z,36.00
2022-08-11T21:16:26.196Z,35.92
2022-08-11T21:19:18.684Z,35.84
2022-08-11T21:22:07.636Z,35.94
2022-08-11T21:24:55.985Z,35.88
2022-08-11T21:27:45.304Z,35.79
2022-08-11T21:30:32.440Z,36.03
2022-08-11T21:33:20.638Z,36.26
2022-08-11T21:36:08.308Z,36.21
2022-08-11T21:38:55.829Z,35.92
2022-08-11T21:41:43.008Z,36.16
2022-08-11T21:44:38.421Z,35.98
2022-08-11T21:47:42.912Z,36.14
2022-08-11T21:50:31.178Z,36.08
2022-08-11T21:53:19.165Z,36.38
2022-08-11T21:56:07.968Z,36.12
2022-08-11T21:58:57.117Z,36.42
2022-08-11T22:01:45.248Z,36.54
2022-08-11T22:04:32.648Z,36.47
2022-08-11T22:07:20.343Z,36.37
2022-08-11T22:10:27.273Z,36.44
2022-08-11T22:13:15.369Z,36.45
2022-08-11T22:16:02.587Z,36.57
2022-08-11T22:18:51.748Z,36.38
2022-08-11T22:21:59.562Z,36.40
2022-08-11T22:24:48.349Z,36.54
2022-08-11T22:27:35.476Z,36.54
2022-08-11T22:30:23.261Z,36.60
2022-08-11T22:33:10.986Z,36.75
2022-08-11T22:35:59.697Z,36.85
2022-08-11T22:38:47.390Z,36.48
2022-08-11T22:41:34.571Z,36.69
2022-08-11T22:44:21.842Z,36.55
2022-08-11T22:47:12.537Z,36.83
2022-08-11T22:50:02.892Z,36.80
2022-08-11T22:52:52.195Z,36.97
2022-08-11T22:55:40.901Z,37.00
2022-08-11T22:58:28.012Z,36.81
2022-08-11T23:01:16.481Z,36.73
2022-08-11T23:04:05.618Z,36.99
2022-08-11T23:06:56.448Z,37.12
2022-08-11T23:09:43.667Z,36.74
2022-08-11T23:12:32.389Z,36.95
2022-08-11T23:15:20.239Z,37.16
2022-08-11T23:18:07.335Z,36.91
2022-08-11T23:20:56.091Z,37.06
2022-08-11T23:23:46.465Z,37.18
2022-08-11T23:26:35.674Z,37.15
2022-08-11T23:29:22.980Z,37.22
2022-08-11T23:32:11.029Z,37.07
2022-08-11T23:35:38.788Z,37.44
2022-08-11T23:38:09.547Z,37.18
2022-08-11T23:40:57.847Z,37.20
2022-08-11T23:43:44.967Z,37.31
2022-08-11T23:46:32.171Z,37.37
2022-08-11T23:49:21.751Z,37.48
2022-08-11T23:52:10.347Z,37.45
2022-08-11T23:54:58.007Z,37.38
2022-08-11T23:57:48.808Z,37.61
